Time;durP1;ratioP1;P1;durP2;ratioP2;P2;SDS_P1;SDS_P2;PMS_P1;PMS_P2;Temp;Humidity;BMP_temperature;BMP_pressure;BME280_temperature;BME280_humidity;BME280_pressure;Samples;Min_cycle;Max_cycle;Signal;HPM_P1;HPM_P2
2022/01/25 00:15:05;;;;;;;13.00;9.63;;;;;;;0.59;100.00;97921.84;5012538;28;20460;-79
2022/01/25 00:26:36;;;;;;;12.70;9.90;;;;;;;0.78;100.00;97942.56;5012188;28;20449;-79
2022/01/25 00:31:32;;;;;;;14.60;10.30;;;;;;;0.78;100.00;97943.38;5014701;28;21045;-78
2022/01/25 00:33:59;;;;;;;18.40;10.80;;;;;;;0.72;100.00;97927.88;5014830;28;20948;-78
2022/01/25 00:36:27;;;;;;;19.50;12.63;;;;;;;0.76;100.00;97944.63;5014026;28;20427;-79
2022/01/25 00:38:55;;;;;;;14.17;10.93;;;;;;;0.63;100.00;97918.78;5014079;28;20463;-79
2022/01/25 00:41:23;;;;;;;15.63;11.67;;;;;;;0.54;100.00;97877.47;5015706;28;20458;-78
2022/01/25 00:43:51;;;;;;;18.03;12.00;;;;;;;0.87;100.00;97930.84;5011718;28;20474;-79
2022/01/25 00:46:20;;;;;;;18.40;11.17;;;;;;;0.85;100.00;97932.88;5013183;28;20449;-79
2022/01/25 00:48:51;;;;;;;17.40;12.13;;;;;;;0.67;100.00;97909.50;5011858;28;20916;-79
2022/01/25 00:56:25;;;;;;;18.97;10.67;;;;;;;0.52;100.00;97889.91;5011932;28;20451;-79
2022/01/25 00:58:52;;;;;;;16.60;10.87;;;;;;;0.78;100.00;97932.16;5011696;28;20536;-79
2022/01/25 01:01:20;;;;;;;16.43;11.57;;;;;;;0.31;100.00;97868.81;5012880;28;20903;-79
2022/01/25 01:03:47;;;;;;;19.33;11.30;;;;;;;0.23;100.00;97854.31;5011798;28;20513;-79
2022/01/25 01:06:15;;;;;;;18.80;11.33;;;;;;;0.72;100.00;97920.06;4995606;28;20447;-79
2022/01/25 01:08:43;;;;;;;39.53;12.30;;;;;;;0.91;100.00;97925.97;5011934;28;20423;-79
2022/01/25 01:11:18;;;;;;;17.77;11.53;;;;;;;0.62;100.00;97891.16;5011558;28;20489;-79
2022/01/25 01:43:45;;;;;;;9.47;8.00;;;;;;;0.58;100.00;97860.41;5027702;28;20438;-79
2022/01/25 01:48:59;;;;;;;13.90;10.13;;;;;;;0.93;100.00;97890.06;5010988;28;20955;-79
2022/01/25 01:51:33;;;;;;;9.13;8.03;;;;;;;1.28;100.00;97913.53;5010790;28;20458;-79
2022/01/25 01:54:07;;;;;;;10.80;9.60;;;;;;;1.32;100.00;97915.44;5010747;28;20505;-79
2022/01/25 01:56:34;;;;;;;12.90;7.80;;;;;;;1.39;100.00;97910.16;5012136;28;20457;-78
2022/01/25 01:59:04;;;;;;;8.53;7.73;;;;;;;1.29;100.00;97910.72;5010455;28;21053;-78
2022/01/25 02:01:32;;;;;;;13.20;8.73;;;;;;;1.02;100.00;97892.13;5010502;28;20462;-78
2022/01/25 02:04:01;;;;;;;8.43;7.50;;;;;;;1.23;100.00;97903.81;5011766;28;20450;-79
2022/01/25 02:06:28;;;;;;;12.33;7.47;;;;;;;1.21;100.00;97916.28;5010662;28;20458;-79
2022/01/25 02:08:56;;;;;;;11.30;6.60;;;;;;;1.07;100.00;97887.06;5010661;28;20534;-79
2022/01/25 02:11:24;;;;;;;9.80;8.20;;;;;;;0.99;100.00;97874.38;5010534;28;20497;-79
2022/01/25 02:13:51;;;;;;;9.17;7.93;;;;;;;1.07;100.00;97883.63;5011470;28;20490;-79
2022/01/25 02:24:35;;;;;;;8.17;7.40;;;;;;;0.53;100.00;97865.47;5014967;28;20450;-78
2022/01/25 02:27:03;;;;;;;12.73;8.17;;;;;;;0.29;100.00;97853.44;5012004;28;20438;-79
2022/01/25 02:29:29;;;;;;;10.80;8.13;;;;;;;0.55;100.00;97892.06;4997140;28;20539;-79
2022/01/25 02:31:57;;;;;;;11.97;7.90;;;;;;;0.52;100.00;97892.50;5013348;28;20509;-78
2022/01/25 02:34:25;;;;;;;12.43;8.90;;;;;;;0.39;100.00;97876.28;4997265;28;20435;-79
2022/01/25 02:37:06;;;;;;;12.40;8.43;;;;;;;0.53;100.00;97890.69;5012987;28;20446;-78
2022/01/25 02:39:34;;;;;;;11.37;7.70;;;;;;;0.43;100.00;97878.25;5013170;28;20458;-79
2022/01/25 02:42:01;;;;;;;10.00;8.50;;;;;;;0.53;100.00;97883.69;4994358;28;21006;-79
2022/01/25 02:44:29;;;;;;;10.67;8.50;;;;;;;0.36;100.00;97851.53;5011698;28;20477;-79
2022/01/25 02:49:33;;;;;;;11.70;9.20;;;;;;;0.26;100.00;97852.06;5011757;28;20419;-79
2022/01/25 02:52:04;;;;;;;16.77;10.40;;;;;;;0.69;100.00;97876.25;5010468;28;20454;-79
2022/01/25 02:54:32;;;;;;;11.60;9.30;;;;;;;0.66;100.00;97861.06;5013488;28;20486;-78
2022/01/25 02:56:59;;;;;;;12.93;7.60;;;;;;;0.55;100.00;97827.03;5001142;28;20627;-78
2022/01/25 02:59:26;;;;;;;13.23;8.90;;;;;;;0.65;100.00;97841.28;5001783;28;20864;-78
2022/01/25 03:01:53;;;;;;;12.27;8.67;;;;;;;0.86;100.00;97877.97;5034356;28;20466;-78
2022/01/25 03:04:22;;;;;;;10.20;9.10;;;;;;;0.25;100.00;97782.84;5034402;28;20447;-78
2022/01/25 03:06:50;;;;;;;14.17;9.10;;;;;;;0.64;100.00;97866.50;5013595;28;20510;-79
2022/01/25 03:09:16;;;;;;;10.87;9.70;;;;;;;-0.07;100.00;97782.34;5010749;28;20519;-79
2022/01/25 03:11:50;;;;;;;15.70;11.23;;;;;;;0.38;100.00;97852.09;5027561;28;20483;-78
2022/01/25 03:14:19;;;;;;;13.40;9.67;;;;;;;0.16;100.00;97784.22;5012582;28;20467;-79
2022/01/25 03:17:03;;;;;;;12.07;8.93;;;;;;;0.70;100.00;97844.81;5016874;28;20478;-78
2022/01/25 03:22:04;;;;;;;19.60;11.10;;;;;;;0.86;100.00;97869.38;5032640;28;20477;-79
2022/01/25 03:24:32;;;;;;;16.50;10.73;;;;;;;0.83;100.00;97852.41;5016427;28;20434;-78
2022/01/25 03:26:59;;;;;;;17.37;12.10;;;;;;;0.51;100.00;97823.25;5000259;28;20435;-79
2022/01/25 03:29:26;;;;;;;14.50;10.37;;;;;;;0.85;100.00;97862.59;5032276;28;20449;-78
2022/01/25 03:31:52;;;;;;;17.27;13.23;;;;;;;0.65;100.00;97821.25;5031145;28;20503;-79
2022/01/25 03:34:19;;;;;;;13.70;10.30;;;;;;;0.66;100.00;97838.44;5013216;28;20431;-79
2022/01/25 03:36:46;;;;;;;14.37;10.57;;;;;;;0.80;100.00;97847.66;5029999;28;20486;-79
2022/01/25 03:39:13;;;;;;;18.50;12.10;;;;;;;0.56;100.00;97827.81;5012951;28;20502;-78
2022/01/25 03:41:40;;;;;;;14.43;10.60;;;;;;;0.44;100.00;97780.97;5012997;28;20491;-79
2022/01/25 03:44:07;;;;;;;14.97;10.67;;;;;;;0.20;100.00;97764.53;5014254;28;20939;-78
2022/01/25 03:51:53;;;;;;;13.87;9.67;;;;;;;0.76;100.00;97835.28;5014151;28;20505;-79
2022/01/25 03:54:19;;;;;;;15.07;10.80;;;;;;;0.73;100.00;97831.34;5012935;28;20482;-78
2022/01/25 03:56:46;;;;;;;11.27;9.17;;;;;;;0.23;100.00;97745.09;5012989;28;20505;-79
2022/01/25 03:59:13;;;;;;;12.83;10.47;;;;;;;0.62;100.00;97816.50;5012361;28;20521;-79
2022/01/25 04:01:40;;;;;;;11.93;10.73;;;;;;;0.41;100.00;97807.44;5014199;28;20525;-79
2022/01/25 04:04:14;;;;;;;15.43;10.77;;;;;;;0.18;100.00;97771.78;5014532;28;20446;-79
2022/01/25 04:06:46;;;;;;;11.70;9.03;;;;;;;0.08;100.00;97781.91;5016879;28;20423;-79
2022/01/25 04:09:13;;;;;;;10.63;8.40;;;;;;;0.35;100.00;97829.13;4999308;28;20431;-78
2022/01/25 04:11:40;;;;;;;12.03;10.10;;;;;;;0.39;100.00;97835.47;5013210;28;20987;-78
2022/01/25 04:14:07;;;;;;;10.47;6.60;;;;;;;0.54;100.00;97837.66;5012511;28;20434;-79
2022/01/25 04:16:38;;;;;;;18.20;13.40;;;;;;;0.41;100.00;97810.03;5012485;28;20530;-78
2022/01/25 04:19:10;;;;;;;14.73;10.57;;;;;;;0.16;100.00;97802.41;4996171;28;20541;-79
2022/01/25 04:26:53;;;;;;;9.67;5.93;;;;;;;0.29;100.00;97849.03;5012326;28;20971;-79
2022/01/25 04:29:22;;;;;;;7.90;5.40;;;;;;;0.20;100.00;97842.53;5012233;28;20442;-79
2022/01/25 04:31:49;;;;;;;7.87;5.57;;;;;;;-0.15;100.00;97802.63;5012172;28;20467;-79
2022/01/25 04:48:50;;;;;;;6.30;5.50;;;;;;;0.08;100.00;97844.31;5013299;28;20439;-79
2022/01/25 04:53:36;;;;;;;8.60;6.20;;;;;;;0.01;100.00;97791.63;5011786;28;20470;-79
2022/01/25 04:56:15;;;;;;;8.10;4.50;;;;;;;0.00;100.00;97766.66;4995633;28;20459;-79
2022/01/25 04:58:51;;;;;;;6.00;4.60;;;;;;;0.03;100.00;97778.41;5011818;28;20881;-79
2022/01/25 05:01:19;;;;;;;6.60;5.97;;;;;;;0.12;100.00;97788.25;5013267;28;20458;-79
2022/01/25 05:03:59;;;;;;;8.50;5.40;;;;;;;0.19;100.00;97798.56;5013023;28;20793;-79
2022/01/25 05:06:27;;;;;;;6.50;5.23;;;;;;;-0.18;100.00;97751.09;5013268;28;20438;-78
2022/01/25 05:08:57;;;;;;;5.77;5.27;;;;;;;0.14;100.00;97809.66;5014228;28;20450;-79
2022/01/25 05:11:30;;;;;;;5.70;5.10;;;;;;;0.11;100.00;97812.66;5015482;28;20486;-78
2022/01/25 05:16:37;;;;;;;9.83;5.73;;;;;;;-0.13;100.00;97782.44;5031379;28;20439;-78
2022/01/25 05:19:22;;;;;;;7.90;5.70;;;;;;;-0.10;100.00;97800.97;5015476;28;20458;-79
2022/01/25 05:22:18;;;;;;;9.10;6.43;;;;;;;-0.48;100.00;97709.56;5014259;28;20528;-79
2022/01/25 05:24:46;;;;;;;10.70;8.30;;;;;;;0.44;100.00;97819.19;5014799;28;20421;-79
2022/01/25 05:27:16;;;;;;;14.80;9.20;;;;;;;0.15;100.00;97794.84;5014260;28;20466;-78
2022/01/25 05:29:43;;;;;;;10.00;7.23;;;;;;;0.36;100.00;97825.50;4997001;28;20439;-78
2022/01/25 05:32:10;;;;;;;12.03;7.67;;;;;;;0.40;100.00;97824.06;5014671;28;20427;-79
2022/01/25 05:34:37;;;;;;;9.67;7.57;;;;;;;0.18;100.00;97794.38;5014600;28;20501;-78
2022/01/25 05:37:06;;;;;;;10.17;8.20;;;;;;;0.42;100.00;97824.63;4997612;28;20944;-78
2022/01/25 05:39:36;;;;;;;8.60;6.67;;;;;;;0.32;100.00;97821.78;5015065;28;20470;-78
2022/01/25 05:47:38;;;;;;;10.93;6.87;;;;;;;-0.02;100.00;97761.66;5012816;28;20866;-79
2022/01/25 05:50:05;;;;;;;9.63;6.57;;;;;;;0.27;100.00;97786.03;5027149;28;20463;-79
2022/01/25 05:52:31;;;;;;;10.00;8.27;;;;;;;0.19;100.00;97778.56;5010617;28;20529;-79
2022/01/25 05:54:59;;;;;;;8.90;7.73;;;;;;;0.26;100.00;97760.22;5010795;28;20474;-79
2022/01/25 05:57:26;;;;;;;11.63;7.87;;;;;;;0.58;100.00;97791.94;5011354;28;20525;-78
2022/01/25 05:59:54;;;;;;;11.03;9.20;;;;;;;0.32;100.00;97790.56;4995495;28;20551;-78
2022/01/25 06:02:23;;;;;;;13.37;10.07;;;;;;;0.73;100.00;97805.31;5013013;28;20463;-78
2022/01/25 06:04:50;;;;;;;11.00;8.27;;;;;;;0.36;100.00;97759.69;5011922;28;20812;-79
2022/01/25 06:07:17;;;;;;;14.40;7.07;;;;;;;0.32;100.00;97779.38;5010772;28;20851;-79
2022/01/25 06:09:43;;;;;;;9.33;7.00;;;;;;;0.30;100.00;97805.59;5011130;28;20462;-79
2022/01/25 06:12:11;;;;;;;8.97;7.00;;;;;;;0.18;100.00;97768.38;5014165;28;20804;-79
2022/01/25 06:14:38;;;;;;;9.57;6.17;;;;;;;0.06;100.00;97778.75;5015995;28;20573;-78
2022/01/25 06:17:05;;;;;;;8.47;6.80;;;;;;;0.32;100.00;97805.38;5024855;28;20479;-78
2022/01/25 06:19:33;;;;;;;7.33;6.63;;;;;;;0.21;100.00;97806.94;5016567;28;20466;-79
2022/01/25 06:22:00;;;;;;;9.90;7.10;;;;;;;0.24;100.00;97803.88;5013578;28;20497;-79
2022/01/25 06:24:26;;;;;;;9.43;7.00;;;;;;;-0.09;100.00;97757.56;5015439;28;20902;-79
2022/01/25 06:26:53;;;;;;;11.10;7.37;;;;;;;0.14;100.00;97788.06;5013527;28;20470;-79
2022/01/25 06:29:20;;;;;;;12.50;8.50;;;;;;;0.21;100.00;97780.94;5015109;28;20431;-79
2022/01/25 06:31:47;;;;;;;8.40;6.07;;;;;;;0.53;100.00;97812.63;5013757;28;20459;-79
2022/01/25 06:34:18;;;;;;;8.07;6.83;;;;;;;0.25;100.00;97787.25;5013674;28;20451;-79
2022/01/25 06:36:46;;;;;;;11.03;7.40;;;;;;;0.24;100.00;97768.25;5012267;28;20439;-79
2022/01/25 06:39:14;;;;;;;11.80;7.67;;;;;;;0.39;100.00;97761.81;5013056;28;20434;-79
2022/01/25 06:41:41;;;;;;;12.07;7.83;;;;;;;0.58;100.00;97791.94;4996558;28;20474;-79
2022/01/25 06:44:08;;;;;;;10.57;7.97;;;;;;;0.23;100.00;97771.09;5013594;28;20463;-79
2022/01/25 06:46:34;;;;;;;9.13;6.77;;;;;;;0.41;100.00;97780.63;5012369;28;20831;-79
2022/01/25 06:49:02;;;;;;;12.40;8.50;;;;;;;0.24;100.00;97772.66;5011271;28;21104;-79
2022/01/25 06:51:29;;;;;;;8.03;5.80;;;;;;;-0.06;100.00;97770.13;5017408;28;20505;-79
2022/01/25 06:53:56;;;;;;;10.60;7.43;;;;;;;0.28;100.00;97818.03;5018070;28;20870;-79
2022/01/25 06:56:23;;;;;;;10.60;7.60;;;;;;;0.34;100.00;97800.75;5016259;28;20489;-79
2022/01/25 06:58:50;;;;;;;12.47;9.03;;;;;;;0.49;100.00;97825.31;5014436;28;20441;-79
2022/01/25 07:01:17;;;;;;;10.63;8.40;;;;;;;0.33;100.00;97810.34;5015966;28;20502;-79
2022/01/25 07:03:45;;;;;;;11.57;7.30;;;;;;;0.29;100.00;97830.03;4997840;28;20435;-78
2022/01/25 07:06:12;;;;;;;16.10;9.10;;;;;;;-0.06;100.00;97776.13;5014009;28;20453;-79
2022/01/25 07:08:39;;;;;;;14.17;9.17;;;;;;;0.45;100.00;97828.59;5015594;28;20481;-79
2022/01/25 07:11:06;;;;;;;10.30;8.40;;;;;;;0.52;100.00;97835.25;5013607;28;20542;-79
2022/01/25 07:13:33;;;;;;;11.53;9.23;;;;;;;0.43;100.00;97809.81;5014916;28;20481;-78
2022/01/25 07:15:59;;;;;;;10.73;8.30;;;;;;;0.41;100.00;97817.84;5013199;28;20439;-78
2022/01/25 07:18:26;;;;;;;13.17;9.50;;;;;;;0.11;100.00;97778.06;5013019;28;20447;-78
2022/01/25 07:20:53;;;;;;;11.83;7.43;;;;;;;0.32;100.00;97839.97;5012842;28;20510;-78
2022/01/25 07:23:20;;;;;;;10.73;8.23;;;;;;;0.38;100.00;97830.47;4996891;28;20801;-79
2022/01/25 07:25:47;;;;;;;10.17;7.37;;;;;;;-0.11;100.00;97755.22;5012954;28;20442;-79
2022/01/25 07:28:14;;;;;;;11.97;8.43;;;;;;;0.25;100.00;97810.66;5013362;28;20490;-78
2022/01/25 07:30:41;;;;;;;15.27;9.90;;;;;;;-0.12;100.00;97727.63;4996995;28;20463;-78
2022/01/25 07:33:22;;;;;;;14.00;7.90;;;;;;;0.20;100.00;97787.16;4987867;28;20550;-78
2022/01/25 07:35:53;;;;;;;12.80;8.10;;;;;;;0.51;100.00;97818.06;4998259;28;20447;-78
2022/01/25 07:38:23;;;;;;;10.30;8.90;;;;;;;0.49;100.00;97796.69;5014396;28;21001;-78
2022/01/25 07:40:53;;;;;;;12.63;9.87;;;;;;;0.61;100.00;97812.31;4997266;28;20475;-78
2022/01/25 07:43:27;;;;;;;13.50;10.20;;;;;;;0.59;100.00;97809.94;5014937;28;20472;-79
2022/01/25 07:45:57;;;;;;;12.40;9.60;;;;;;;0.52;100.00;97787.63;4997241;28;20443;-78
2022/01/25 07:48:29;;;;;;;11.33;8.70;;;;;;;0.66;100.00;97790.81;5014513;28;20426;-78
2022/01/25 07:50:59;;;;;;;11.57;8.50;;;;;;;0.87;100.00;97819.69;5012873;28;20463;-78
2022/01/25 07:53:26;;;;;;;9.57;8.07;;;;;;;0.18;100.00;97744.97;5012722;28;20799;-79
2022/01/25 07:55:53;;;;;;;10.30;8.00;;;;;;;0.43;100.00;97817.63;5013352;28;20439;-78
2022/01/25 07:58:19;;;;;;;17.00;12.00;;;;;;;0.26;100.00;97748.00;5012633;28;20482;-78
2022/01/25 08:00:48;;;;;;;14.10;11.00;;;;;;;0.75;100.00;97820.69;5012164;28;20520;-78
2022/01/25 08:03:18;;;;;;;13.43;8.50;;;;;;;0.36;100.00;97770.09;5014165;28;20446;-78
2022/01/25 08:05:48;;;;;;;11.47;9.90;;;;;;;0.40;100.00;97790.25;5013650;28;20427;-78
2022/01/25 08:08:33;;;;;;;15.23;10.90;;;;;;;0.32;100.00;97813.97;5012705;28;20784;-78
2022/01/25 08:11:17;;;;;;;14.73;8.70;;;;;;;0.22;100.00;97792.91;5012556;28;20469;-79
2022/01/25 08:13:50;;;;;;;18.47;11.40;;;;;;;0.66;100.00;97835.03;5012147;28;20435;-79
2022/01/25 08:16:19;;;;;;;13.47;10.87;;;;;;;0.25;100.00;97776.84;4996721;28;20506;-78
2022/01/25 08:19:17;;;;;;;15.33;10.37;;;;;;;0.55;100.00;97832.22;4982680;28;20905;-78
2022/01/25 08:22:11;;;;;;;12.83;9.73;;;;;;;0.38;100.00;97826.06;5011547;28;20869;-78
2022/01/25 08:24:40;;;;;;;14.33;10.63;;;;;;;0.00;100.00;97790.06;4994760;28;20859;-78
2022/01/25 08:27:27;;;;;;;12.87;8.63;;;;;;;0.28;100.00;97825.84;5010623;28;20451;-79
2022/01/25 08:30:23;;;;;;;14.20;11.70;;;;;;;0.23;100.00;97778.88;4994806;28;21021;-78
2022/01/25 08:33:04;;;;;;;20.13;11.93;;;;;;;0.30;100.00;97784.78;5011319;28;20455;-78
2022/01/25 08:35:59;;;;;;;12.70;11.30;;;;;;;0.67;100.00;97832.25;4940707;29;20454;-78
2022/01/25 08:38:33;;;;;;;15.63;11.47;;;;;;;0.37;100.00;97779.47;4952587;29;20438;-78
2022/01/25 08:41:14;;;;;;;17.10;11.37;;;;;;;0.62;100.00;97834.72;4916260;29;20477;-78
2022/01/25 08:44:12;;;;;;;17.77;12.57;;;;;;;0.41;100.00;97830.84;4926718;29;20860;-77
2022/01/25 08:46:42;;;;;;;13.07;10.00;;;;;;;0.14;100.00;97806.25;4953170;29;20512;-78
2022/01/25 08:49:10;;;;;;;23.00;12.63;;;;;;;0.59;100.00;97835.16;4936223;29;20449;-78
2022/01/25 08:51:54;;;;;;;11.10;9.27;;;;;;;0.11;100.00;97783.28;4942454;29;20505;-78
2022/01/25 08:54:40;;;;;;;12.73;11.20;;;;;;;0.64;100.00;97831.88;4890216;29;20464;-78
2022/01/25 08:57:16;;;;;;;12.13;10.90;;;;;;;0.79;100.00;97838.22;4880724;29;20459;-78
2022/01/25 08:59:59;;;;;;;18.20;12.20;;;;;;;0.67;100.00;97808.00;4873325;29;20566;-78
2022/01/25 09:02:26;;;;;;;15.93;10.70;;;;;;;0.69;100.00;97811.19;4895903;29;20471;-78
2022/01/25 09:04:53;;;;;;;14.63;11.67;;;;;;;0.60;100.00;97797.72;4895962;29;20444;-78
2022/01/25 09:07:20;;;;;;;18.30;11.97;;;;;;;0.41;100.00;97791.03;4880757;29;20451;-78
2022/01/25 09:09:46;;;;;;;15.27;11.83;;;;;;;0.54;100.00;97799.41;4923248;28;20432;-78
2022/01/25 09:12:13;;;;;;;18.53;11.27;;;;;;;0.47;100.00;97800.53;4971792;28;20491;-78
2022/01/25 09:14:40;;;;;;;17.73;11.67;;;;;;;0.40;100.00;97785.03;4956110;28;20428;-78
2022/01/25 09:17:09;;;;;;;16.77;12.60;;;;;;;-0.02;100.00;97724.47;4972842;28;20925;-79
2022/01/25 09:19:41;;;;;;;18.93;11.87;;;;;;;0.34;100.00;97785.13;4955845;28;20500;-78
2022/01/25 09:22:09;;;;;;;15.37;12.10;;;;;;;0.34;100.00;97798.13;4956243;28;20469;-78
2022/01/25 09:24:39;;;;;;;15.50;12.00;;;;;;;0.79;100.00;97830.41;4981483;28;20424;-78
2022/01/25 09:27:08;;;;;;;16.77;12.83;;;;;;;0.61;100.00;97798.50;5029165;28;20418;-78
2022/01/25 09:29:37;;;;;;;15.63;12.47;;;;;;;0.62;100.00;97818.31;5012759;28;20435;-78
2022/01/25 09:32:04;;;;;;;17.53;12.67;;;;;;;0.79;100.00;97843.44;4996102;28;20505;-78
2022/01/25 09:34:31;;;;;;;16.07;11.47;;;;;;;0.67;100.00;97837.44;5012383;28;20478;-78
2022/01/25 09:36:57;;;;;;;15.43;12.47;;;;;;;0.24;100.00;97790.88;5012415;28;20478;-78
2022/01/25 09:39:25;;;;;;;16.57;12.33;;;;;;;0.91;100.00;97855.66;4995906;28;20463;-78
2022/01/25 09:41:52;;;;;;;14.30;11.33;;;;;;;0.67;100.00;97814.03;5028878;28;20467;-78
2022/01/25 09:44:19;;;;;;;16.60;11.90;;;;;;;0.95;100.00;97855.00;5013189;28;20443;-78
2022/01/25 09:46:46;;;;;;;15.43;10.97;;;;;;;0.84;100.00;97834.97;5013233;28;20857;-78
2022/01/25 09:49:13;;;;;;;13.10;10.67;;;;;;;0.67;100.00;97841.84;5013022;28;20919;-77
2022/01/25 09:51:41;;;;;;;15.13;11.37;;;;;;;0.79;100.00;97853.06;5011544;28;20495;-78
2022/01/25 09:54:08;;;;;;;15.27;13.67;;;;;;;0.36;100.00;97799.50;5011987;28;20446;-78
2022/01/25 09:56:35;;;;;;;16.90;11.93;;;;;;;0.79;100.00;97835.63;5011721;28;21009;-78
2022/01/25 09:59:02;;;;;;;17.17;12.97;;;;;;;0.93;100.00;97843.22;5012228;28;20877;-78
2022/01/25 10:01:31;;;;;;;13.00;11.20;;;;;;;0.92;100.00;97844.22;5012319;28;20470;-77
2022/01/25 10:04:00;;;;;;;21.60;12.40;;;;;;;0.78;100.00;97830.66;4995141;28;20439;-78
2022/01/25 10:06:32;;;;;;;14.67;11.20;;;;;;;0.46;100.00;97791.16;5011342;28;20447;-78
2022/01/25 10:08:58;;;;;;;16.03;13.03;;;;;;;0.65;100.00;97820.44;4995181;28;20439;-77
2022/01/25 10:11:26;;;;;;;18.80;14.00;;;;;;;0.52;100.00;97793.63;4995158;28;20459;-77
2022/01/25 10:13:58;;;;;;;14.10;12.10;;;;;;;0.77;100.00;97827.25;4994959;28;20451;-78
2022/01/25 10:16:34;;;;;;;14.07;11.10;;;;;;;0.57;100.00;97811.19;5010963;28;20904;-78
2022/01/25 10:19:06;;;;;;;13.40;12.00;;;;;;;0.52;100.00;97813.66;5014649;28;20431;-77
2022/01/25 10:21:36;;;;;;;16.87;12.63;;;;;;;0.49;100.00;97820.09;4994465;28;20478;-77
2022/01/25 10:24:15;;;;;;;14.13;12.07;;;;;;;0.45;100.00;97850.19;5011911;28;20442;-77
2022/01/25 10:26:59;;;;;;;14.47;10.07;;;;;;;0.18;100.00;97825.59;5015714;28;20914;-77
2022/01/25 10:29:35;;;;;;;14.57;9.60;;;;;;;0.38;100.00;97857.28;5031667;28;20418;-78
2022/01/25 10:32:06;;;;;;;14.47;11.17;;;;;;;0.34;100.00;97858.75;5017096;28;20489;-77
2022/01/25 10:34:41;;;;;;;16.57;12.80;;;;;;;0.21;100.00;97841.53;5014522;28;20426;-78
2022/01/25 10:37:13;;;;;;;25.70;17.20;;;;;;;0.38;100.00;97848.69;5015014;28;20438;-78
2022/01/25 10:39:45;;;;;;;23.93;13.80;;;;;;;0.32;100.00;97844.41;5014935;28;20435;-78
2022/01/25 10:42:20;;;;;;;18.80;14.97;;;;;;;0.29;100.00;97841.22;5015786;28;20455;-78
2022/01/25 10:45:17;;;;;;;16.00;12.37;;;;;;;0.23;100.00;97844.69;5016590;28;20430;-79
2022/01/25 10:47:50;;;;;;;17.03;14.10;;;;;;;0.15;100.00;97826.81;4996637;28;20438;-78
2022/01/25 10:50:42;;;;;;;16.70;13.30;;;;;;;0.34;100.00;97845.75;5016076;28;20807;-79
2022/01/25 10:53:11;;;;;;;18.37;14.10;;;;;;;0.13;100.00;97807.25;4999738;28;20460;-79
2022/01/25 10:55:40;;;;;;;15.27;12.20;;;;;;;0.35;100.00;97820.53;5031316;28;20447;-78
2022/01/25 10:58:07;;;;;;;15.13;11.53;;;;;;;0.35;100.00;97803.13;4999115;28;20451;-78
2022/01/25 11:00:38;;;;;;;16.13;12.07;;;;;;;0.68;100.00;97825.22;5015109;28;20899;-78
2022/01/25 11:03:05;;;;;;;17.10;12.17;;;;;;;0.61;100.00;97811.53;5013710;28;20467;-77
2022/01/25 11:05:35;;;;;;;18.37;13.53;;;;;;;0.49;100.00;97799.28;5014853;28;20430;-78
2022/01/25 11:08:17;;;;;;;15.47;13.27;;;;;;;0.67;100.00;97840.06;4997448;28;20496;-78
2022/01/25 11:10:49;;;;;;;16.90;13.40;;;;;;;0.39;100.00;97803.44;4997492;28;20485;-77
2022/01/25 11:13:52;;;;;;;18.40;13.37;;;;;;;0.57;100.00;97816.38;5013983;28;20696;-78
2022/01/25 11:16:12;;;;;;;18.90;13.60;;;;;;;0.65;100.00;97818.63;5014245;28;20530;-78
2022/01/25 11:18:40;;;;;;;15.60;12.13;;;;;;;0.94;100.00;97824.78;4998584;28;20447;-78
2022/01/25 11:21:09;;;;;;;18.37;13.47;;;;;;;0.93;100.00;97822.38;5014183;28;20483;-78
2022/01/25 11:23:38;;;;;;;20.10;12.50;;;;;;;0.66;100.00;97780.41;5014701;28;20471;-79
2022/01/25 11:26:10;;;;;;;13.47;11.10;;;;;;;1.04;100.00;97801.53;5014300;28;20959;-78
2022/01/25 11:28:38;;;;;;;16.23;12.70;;;;;;;0.64;100.00;97740.78;5015126;28;20458;-78
2022/01/25 11:31:27;;;;;;;17.27;12.23;;;;;;;0.78;100.00;97808.00;5014282;28;20483;-78
2022/01/25 11:33:55;;;;;;;16.80;13.87;;;;;;;0.11;100.00;97744.28;5013955;28;20438;-78
2022/01/25 11:36:22;;;;;;;17.20;13.67;;;;;;;0.34;100.00;97761.72;4996923;28;20478;-78
2022/01/25 11:38:52;;;;;;;18.13;13.23;;;;;;;0.57;100.00;97790.38;4997909;28;20458;-77
2022/01/25 11:41:23;;;;;;;22.23;15.53;;;;;;;0.67;100.00;97787.19;4997629;28;20557;-78
2022/01/25 11:44:14;;;;;;;19.10;14.73;;;;;;;0.64;100.00;97785.03;5027049;28;20415;-78
2022/01/25 11:46:47;;;;;;;21.27;13.60;;;;;;;0.72;100.00;97787.31;5016318;28;20435;-79
2022/01/25 11:49:17;;;;;;;19.27;14.40;;;;;;;0.67;100.00;97776.78;4997904;28;20454;-78
2022/01/25 11:51:46;;;;;;;15.20;13.60;;;;;;;0.67;100.00;97788.00;5013518;28;20467;-78
2022/01/25 11:54:13;;;;;;;16.23;13.10;;;;;;;0.57;100.00;97766.94;5015663;28;20450;-78
2022/01/25 11:56:41;;;;;;;15.60;12.87;;;;;;;0.55;100.00;97751.56;5022767;28;20427;-78
2022/01/25 11:59:13;;;;;;;16.40;11.97;;;;;;;0.62;100.00;97776.66;5032447;28;20470;-78
2022/01/25 12:01:40;;;;;;;20.53;15.40;;;;;;;0.51;100.00;97732.19;5032841;28;20502;-78
2022/01/25 12:04:11;;;;;;;19.43;15.97;;;;;;;0.66;100.00;97777.78;5016907;28;20434;-78
2022/01/25 12:06:44;;;;;;;17.00;12.10;;;;;;;0.58;100.00;97747.72;4997767;28;20446;-78
2022/01/25 12:09:31;;;;;;;22.07;14.70;;;;;;;0.81;100.00;97760.72;5014110;28;20427;-78
2022/01/25 12:12:01;;;;;;;17.93;13.97;;;;;;;0.92;100.00;97777.34;5014298;28;20486;-78
2022/01/25 12:14:43;;;;;;;17.30;13.30;;;;;;;1.08;100.00;97768.84;5013504;28;20446;-78
2022/01/25 12:17:13;;;;;;;28.10;13.00;;;;;;;0.83;100.00;97758.69;4999729;28;20439;-78
2022/01/25 12:20:03;;;;;;;16.80;12.33;;;;;;;0.89;100.00;97764.78;5014620;28;20546;-78
2022/01/25 12:22:39;;;;;;;14.40;12.83;;;;;;;0.86;100.00;97763.44;5015695;28;20462;-78
2022/01/25 12:25:25;;;;;;;21.43;13.90;;;;;;;0.79;100.00;97767.16;5014987;28;20423;-79
2022/01/25 12:28:31;;;;;;;16.47;12.67;;;;;;;0.52;100.00;97728.56;5014893;28;20518;-79
2022/01/25 12:31:01;;;;;;;19.37;14.33;;;;;;;0.68;100.00;97747.16;4998059;28;20490;-79
2022/01/25 12:33:32;;;;;;;15.67;12.50;;;;;;;0.77;100.00;97732.75;5014439;28;20439;-78
2022/01/25 12:36:07;;;;;;;18.13;13.13;;;;;;;-0.16;100.00;97638.09;5015330;28;20485;-78
2022/01/25 12:38:52;;;;;;;15.73;12.63;;;;;;;0.57;100.00;97731.31;5015890;28;20471;-78
2022/01/25 12:41:21;;;;;;;17.97;13.57;;;;;;;0.99;100.00;97759.78;5016535;28;20491;-79
2022/01/25 12:43:54;;;;;;;19.03;12.73;;;;;;;1.06;100.00;97759.66;5020601;28;20435;-79
2022/01/25 12:46:24;;;;;;;20.30;14.27;;;;;;;0.57;100.00;97725.31;5020788;28;20440;-79
2022/01/25 12:48:54;;;;;;;20.57;15.37;;;;;;;0.72;100.00;97748.28;5021865;28;20771;-79
2022/01/25 12:51:26;;;;;;;21.50;17.30;;;;;;;0.83;100.00;97757.88;5021193;28;20983;-79
2022/01/25 12:53:55;;;;;;;22.23;16.30;;;;;;;0.68;100.00;97747.94;5020721;28;20423;-79
2022/01/25 12:56:29;;;;;;;23.67;17.67;;;;;;;0.65;100.00;97744.97;5028468;28;20411;-79
2022/01/25 12:58:59;;;;;;;20.77;15.80;;;;;;;0.75;100.00;97766.03;5036289;28;20513;-79
2022/01/25 13:01:27;;;;;;;24.27;17.90;;;;;;;0.77;100.00;97764.00;5030862;28;20500;-79
2022/01/25 13:04:00;;;;;;;21.07;15.93;;;;;;;0.63;100.00;97729.59;5003805;28;20531;-79
2022/01/25 13:06:39;;;;;;;22.20;16.43;;;;;;;0.81;100.00;97737.28;5002111;28;20901;-79
2022/01/25 13:09:37;;;;;;;23.93;16.40;;;;;;;0.41;100.00;97695.56;5027591;28;20426;-79
2022/01/25 13:17:12;;;;;;;22.23;17.10;;;;;;;0.88;100.00;97742.38;5018586;28;20459;-79
2022/01/25 13:19:53;;;;;;;20.13;16.57;;;;;;;0.92;100.00;97740.09;5002036;28;20446;-79
2022/01/25 13:22:30;;;;;;;20.63;16.20;;;;;;;0.85;100.00;97733.22;5018440;28;20460;-79
2022/01/25 13:25:12;;;;;;;21.83;16.63;;;;;;;0.71;100.00;97713.66;5017160;28;20445;-79
2022/01/25 13:27:53;;;;;;;20.17;15.57;;;;;;;0.84;100.00;97733.44;5016709;28;20427;-79
2022/01/25 13:30:42;;;;;;;20.30;15.57;;;;;;;0.99;100.00;97732.97;5000705;28;20542;-79
2022/01/25 13:33:20;;;;;;;20.13;14.50;;;;;;;1.01;100.00;97733.50;5016732;28;20510;-79
2022/01/25 13:35:53;;;;;;;21.23;15.60;;;;;;;1.11;100.00;97724.09;5033332;28;20435;-79
2022/01/25 13:38:21;;;;;;;16.53;13.70;;;;;;;1.17;100.00;97738.00;5024675;28;20392;-79